sensor_id;sensor_type;location;lat;lon;timestamp;temperature;humidity
54260;DHT22;40172;53.022;7.012;2024-01-11T00:02:21;-5.30;99.90
54260;DHT22;40172;53.022;7.012;2024-01-11T00:04:47;-6.70;99.90
54260;DHT22;40172;53.022;7.012;2024-01-11T00:07:12;-6.70;99.90
54260;DHT22;40172;53.022;7.012;2024-01-11T00:09:41;-5.30;99.90
54260;DHT22;40172;53.022;7.012;2024-01-11T00:12:07;-6.60;99.90
54260;DHT22;40172;53.022;7.012;2024-01-11T00:14:33;-6.60;99.90
54260;DHT22;40172;53.022;7.012;2024-01-11T00:16:58;-6.60;99.90
54260;DHT22;40172;53.022;7.012;2024-01-11T00:19:24;-6.70;99.90
54260;DHT22;40172;53.022;7.012;2024-01-11T00:21:49;-6.70;99.90
54260;DHT22;40172;53.022;7.012;2024-01-11T00:24:15;-6.50;99.90
54260;DHT22;40172;53.022;7.012;2024-01-11T00:26:41;-6.70;99.90
54260;DHT22;40172;53.022;7.012;2024-01-11T00:29:07;-6.60;99.90
54260;DHT22;40172;53.022;7.012;2024-01-11T00:31:32;-4.70;99.90
54260;DHT22;40172;53.022;7.012;2024-01-11T00:33:58;-6.70;99.90
54260;DHT22;40172;53.022;7.012;2024-01-11T00:36:23;-6.70;99.90
54260;DHT22;40172;53.022;7.012;2024-01-11T00:38:49;-5.20;99.90
54260;DHT22;40172;53.022;7.012;2024-01-11T00:41:15;-6.60;99.90
54260;DHT22;40172;53.022;7.012;2024-01-11T00:43:40;-6.60;99.90
54260;DHT22;40172;53.022;7.012;2024-01-11T00:46:06;-6.40;99.90
54260;DHT22;40172;53.022;7.012;2024-01-11T00:48:31;-6.70;99.90
54260;DHT22;40172;53.022;7.012;2024-01-11T00:50:57;-6.70;99.90
54260;DHT22;40172;53.022;7.012;2024-01-11T00:53:22;-5.30;99.90
54260;DHT22;40172;53.022;7.012;2024-01-11T00:55:48;-6.60;99.90
54260;DHT22;40172;53.022;7.012;2024-01-11T00:58:13;-6.60;99.90
54260;DHT22;40172;53.022;7.012;2024-01-11T01:00:39;-4.70;99.90
54260;DHT22;40172;53.022;7.012;2024-01-11T01:03:05;-6.60;99.90
54260;DHT22;40172;53.022;7.012;2024-01-11T01:05:30;-6.50;99.90
54260;DHT22;40172;53.022;7.012;2024-01-11T01:07:56;-4.90;99.90
54260;DHT22;40172;53.022;7.012;2024-01-11T01:10:21;-6.30;99.90
54260;DHT22;40172;53.022;7.012;2024-01-11T01:12:47;-6.50;99.90
54260;DHT22;40172;53.022;7.012;2024-01-11T01:15:12;-6.70;99.90
54260;DHT22;40172;53.022;7.012;2024-01-11T01:17:39;-6.60;99.90
54260;DHT22;40172;53.022;7.012;2024-01-11T01:20:05;-6.60;99.90
54260;DHT22;40172;53.022;7.012;2024-01-11T01:22:31;-7.20;99.90
54260;DHT22;40172;53.022;7.012;2024-01-11T01:24:56;-6.60;99.90
54260;DHT22;40172;53.022;7.012;2024-01-11T01:27:22;-6.60;99.90
54260;DHT22;40172;53.022;7.012;2024-01-11T01:29:47;-5.90;99.90
54260;DHT22;40172;53.022;7.012;2024-01-11T01:32:13;-6.60;99.90
54260;DHT22;40172;53.022;7.012;2024-01-11T01:34:39;-6.70;99.90
54260;DHT22;40172;53.022;7.012;2024-01-11T01:37:04;-6.70;99.90
54260;DHT22;40172;53.022;7.012;2024-01-11T01:39:30;-6.70;99.90
54260;DHT22;40172;53.022;7.012;2024-01-11T01:41:55;-6.60;99.90
54260;DHT22;40172;53.022;7.012;2024-01-11T01:44:21;-7.00;99.90
54260;DHT22;40172;53.022;7.012;2024-01-11T01:46:46;-6.70;99.90
54260;DHT22;40172;53.022;7.012;2024-01-11T01:49:12;-6.70;99.90
54260;DHT22;40172;53.022;7.012;2024-01-11T01:51:38;-6.60;99.90
54260;DHT22;40172;53.022;7.012;2024-01-11T01:54:04;-6.80;99.90
54260;DHT22;40172;53.022;7.012;2024-01-11T01:56:30;-5.90;99.90
54260;DHT22;40172;53.022;7.012;2024-01-11T01:58:56;-5.20;99.90
54260;DHT22;40172;53.022;7.012;2024-01-11T02:01:23;-6.60;99.90
54260;DHT22;40172;53.022;7.012;2024-01-11T02:03:50;-6.70;99.90
54260;DHT22;40172;53.022;7.012;2024-01-11T02:06:16;-6.60;99.90
54260;DHT22;40172;53.022;7.012;2024-01-11T02:08:43;-6.60;99.90
54260;DHT22;40172;53.022;7.012;2024-01-11T02:11:10;-6.70;99.90
54260;DHT22;40172;53.022;7.012;2024-01-11T02:13:36;-5.90;99.90
54260;DHT22;40172;53.022;7.012;2024-01-11T02:16:02;-6.80;99.90
54260;DHT22;40172;53.022;7.012;2024-01-11T02:18:28;-6.80;99.90
54260;DHT22;40172;53.022;7.012;2024-01-11T02:20:53;-6.20;99.90
54260;DHT22;40172;53.022;7.012;2024-01-11T02:23:21;-6.70;99.90
54260;DHT22;40172;53.022;7.012;2024-01-11T02:25:47;-6.80;99.90
54260;DHT22;40172;53.022;7.012;2024-01-11T02:28:12;-5.40;99.90
54260;DHT22;40172;53.022;7.012;2024-01-11T02:30:38;-6.70;99.90
54260;DHT22;40172;53.022;7.012;2024-01-11T02:33:04;-6.70;99.90
54260;DHT22;40172;53.022;7.012;2024-01-11T02:35:30;-6.70;99.90
54260;DHT22;40172;53.022;7.012;2024-01-11T02:37:56;-6.70;99.90
54260;DHT22;40172;53.022;7.012;2024-01-11T02:40:22;-6.40;99.90
54260;DHT22;40172;53.022;7.012;2024-01-11T02:42:47;-6.60;99.90
54260;DHT22;40172;53.022;7.012;2024-01-11T02:45:13;-6.70;99.90
54260;DHT22;40172;53.022;7.012;2024-01-11T02:47:38;-6.70;99.90
54260;DHT22;40172;53.022;7.012;2024-01-11T02:50:05;-6.70;99.90
54260;DHT22;40172;53.022;7.012;2024-01-11T02:52:32;-6.80;99.90
54260;DHT22;40172;53.022;7.012;2024-01-11T02:54:58;-5.40;99.90
54260;DHT22;40172;53.022;7.012;2024-01-11T02:57:23;-6.80;99.90
54260;DHT22;40172;53.022;7.012;2024-01-11T02:59:49;-6.80;99.90
54260;DHT22;40172;53.022;7.012;2024-01-11T03:02:15;-7.50;99.90
54260;DHT22;40172;53.022;7.012;2024-01-11T03:04:41;-6.70;99.90
54260;DHT22;40172;53.022;7.012;2024-01-11T03:07:06;-6.80;99.90
54260;DHT22;40172;53.022;7.012;2024-01-11T03:09:32;-6.80;99.90
54260;DHT22;40172;53.022;7.012;2024-01-11T03:11:58;-6.80;99.90
54260;DHT22;40172;53.022;7.012;2024-01-11T03:14:24;-6.80;99.90
54260;DHT22;40172;53.022;7.012;2024-01-11T03:16:49;-6.80;99.90
54260;DHT22;40172;53.022;7.012;2024-01-11T03:19:15;-6.80;99.90
54260;DHT22;40172;53.022;7.012;2024-01-11T03:21:42;-6.80;99.90
54260;DHT22;40172;53.022;7.012;2024-01-11T03:24:07;-6.80;99.90
54260;DHT22;40172;53.022;7.012;2024-01-11T03:26:33;-6.80;99.90
54260;DHT22;40172;53.022;7.012;2024-01-11T03:28:59;-6.80;99.90
54260;DHT22;40172;53.022;7.012;2024-01-11T03:31:24;-7.40;99.90
54260;DHT22;40172;53.022;7.012;2024-01-11T03:33:50;-6.80;99.90
54260;DHT22;40172;53.022;7.012;2024-01-11T03:36:15;-6.90;99.90
54260;DHT22;40172;53.022;7.012;2024-01-11T03:38:41;-7.00;99.90
54260;DHT22;40172;53.022;7.012;2024-01-11T03:41:09;-6.90;99.90
54260;DHT22;40172;53.022;7.012;2024-01-11T03:43:36;-6.90;99.90
54260;DHT22;40172;53.022;7.012;2024-01-11T03:46:01;-7.40;99.90
54260;DHT22;40172;53.022;7.012;2024-01-11T03:48:27;-6.30;99.90
54260;DHT22;40172;53.022;7.012;2024-01-11T03:50:52;-6.90;99.90
54260;DHT22;40172;53.022;7.012;2024-01-11T03:53:18;-6.30;99.90
54260;DHT22;40172;53.022;7.012;2024-01-11T03:55:43;-6.90;99.90
54260;DHT22;40172;53.022;7.012;2024-01-11T03:58:09;-6.90;99.90
54260;DHT22;40172;53.022;7.012;2024-01-11T04:00:35;-5.90;99.90
54260;DHT22;40172;53.022;7.012;2024-01-11T04:03:00;-7.00;99.90
54260;DHT22;40172;53.022;7.012;2024-01-11T04:05:27;-7.00;99.90
54260;DHT22;40172;53.022;7.012;2024-01-11T04:07:53;-6.90;99.90
54260;DHT22;40172;53.022;7.012;2024-01-11T04:10:18;-7.00;99.90
54260;DHT22;40172;53.022;7.012;2024-01-11T04:12:44;-6.90;99.90
54260;DHT22;40172;53.022;7.012;2024-01-11T04:15:13;-7.20;99.90
54260;DHT22;40172;53.022;7.012;2024-01-11T04:17:39;-7.00;99.90
54260;DHT22;40172;53.022;7.012;2024-01-11T04:20:06;-7.00;99.90
54260;DHT22;40172;53.022;7.012;2024-01-11T04:22:32;-7.00;99.90
54260;DHT22;40172;53.022;7.012;2024-01-11T04:24:57;-7.00;99.90
54260;DHT22;40172;53.022;7.012;2024-01-11T04:27:23;-7.10;99.90
54260;DHT22;40172;53.022;7.012;2024-01-11T04:29:49;-7.10;99.90
54260;DHT22;40172;53.022;7.012;2024-01-11T04:32:14;-6.90;99.90
54260;DHT22;40172;53.022;7.012;2024-01-11T04:34:40;-6.90;99.90
54260;DHT22;40172;53.022;7.012;2024-01-11T04:37:06;-6.00;99.90
54260;DHT22;40172;53.022;7.012;2024-01-11T04:39:31;-6.60;99.90
54260;DHT22;40172;53.022;7.012;2024-01-11T04:41:57;-6.60;99.90
54260;DHT22;40172;53.022;7.012;2024-01-11T04:44:23;-7.00;99.90
54260;DHT22;40172;53.022;7.012;2024-01-11T04:46:48;-6.30;99.90
54260;DHT22;40172;53.022;7.012;2024-01-11T04:49:14;-6.20;99.90
54260;DHT22;40172;53.022;7.012;2024-01-11T04:51:39;-6.10;99.90
54260;DHT22;40172;53.022;7.012;2024-01-11T04:54:05;-5.80;99.90
54260;DHT22;40172;53.022;7.012;2024-01-11T04:56:31;-5.90;99.90
54260;DHT22;40172;53.022;7.012;2024-01-11T04:58:56;-4.70;99.90
54260;DHT22;40172;53.022;7.012;2024-01-11T05:01:22;-5.50;99.90
54260;DHT22;40172;53.022;7.012;2024-01-11T05:03:47;-5.40;99.90
54260;DHT22;40172;53.022;7.012;2024-01-11T05:06:19;-4.90;99.90
54260;DHT22;40172;53.022;7.012;2024-01-11T05:08:45;-5.30;99.90
54260;DHT22;40172;53.022;7.012;2024-01-11T05:13:43;-5.10;99.90
54260;DHT22;40172;53.022;7.012;2024-01-11T05:16:31;-5.10;99.90
54260;DHT22;40172;53.022;7.012;2024-01-11T05:18:57;-5.40;99.90
54260;DHT22;40172;53.022;7.012;2024-01-11T05:21:23;-4.90;99.90
54260;DHT22;40172;53.022;7.012;2024-01-11T05:23:48;-4.80;99.90
54260;DHT22;40172;53.022;7.012;2024-01-11T05:26:15;-4.70;99.90
54260;DHT22;40172;53.022;7.012;2024-01-11T05:28:41;-4.60;99.90
54260;DHT22;40172;53.022;7.012;2024-01-11T05:31:10;-4.00;99.90
54260;DHT22;40172;53.022;7.012;2024-01-11T05:33:36;-4.60;99.90
54260;DHT22;40172;53.022;7.012;2024-01-11T05:36:01;-4.40;99.90
54260;DHT22;40172;53.022;7.012;2024-01-11T05:38:28;-4.60;99.90
54260;DHT22;40172;53.022;7.012;2024-01-11T05:40:53;-4.30;99.90
54260;DHT22;40172;53.022;7.012;2024-01-11T05:43:19;-4.30;99.90
54260;DHT22;40172;53.022;7.012;2024-01-11T05:45:44;-4.30;99.90
54260;DHT22;40172;53.022;7.012;2024-01-11T05:48:10;-4.30;99.90
54260;DHT22;40172;53.022;7.012;2024-01-11T05:50:36;-4.10;99.90
54260;DHT22;40172;53.022;7.012;2024-01-11T05:53:01;-4.10;99.90
54260;DHT22;40172;53.022;7.012;2024-01-11T05:55:27;-4.10;99.90
54260;DHT22;40172;53.022;7.012;2024-01-11T05:57:52;-4.00;99.90
54260;DHT22;40172;53.022;7.012;2024-01-11T06:00:18;-3.90;99.90
54260;DHT22;40172;53.022;7.012;2024-01-11T06:02:43;-4.00;99.90
54260;DHT22;40172;53.022;7.012;2024-01-11T06:05:09;-3.90;99.90
54260;DHT22;40172;53.022;7.012;2024-01-11T06:07:35;-3.80;99.90
54260;DHT22;40172;53.022;7.012;2024-01-11T06:10:00;-3.80;99.90
54260;DHT22;40172;53.022;7.012;2024-01-11T06:12:31;-3.80;99.90
54260;DHT22;40172;53.022;7.012;2024-01-11T06:14:56;-3.60;99.90
54260;DHT22;40172;53.022;7.012;2024-01-11T06:17:23;-3.70;99.90
54260;DHT22;40172;53.022;7.012;2024-01-11T06:19:49;-3.60;99.90
54260;DHT22;40172;53.022;7.012;2024-01-11T06:22:14;-3.60;99.90
54260;DHT22;40172;53.022;7.012;2024-01-11T06:24:40;-3.60;99.90
54260;DHT22;40172;53.022;7.012;2024-01-11T06:27:06;-3.50;99.90
54260;DHT22;40172;53.022;7.012;2024-01-11T06:29:31;-3.40;99.90
54260;DHT22;40172;53.022;7.012;2024-01-11T06:31:57;-3.40;99.90
54260;DHT22;40172;53.022;7.012;2024-01-11T06:34:22;-3.40;99.90
54260;DHT22;40172;53.022;7.012;2024-01-11T06:36:48;-3.30;99.90
54260;DHT22;40172;53.022;7.012;2024-01-11T06:39:13;-3.40;99.90
54260;DHT22;40172;53.022;7.012;2024-01-11T06:41:39;-3.30;99.90
54260;DHT22;40172;53.022;7.012;2024-01-11T06:44:05;-3.30;99.90
54260;DHT22;40172;53.022;7.012;2024-01-11T06:46:30;-3.30;99.90
54260;DHT22;40172;53.022;7.012;2024-01-11T06:48:56;-3.30;99.90
54260;DHT22;40172;53.022;7.012;2024-01-11T06:51:22;-3.30;99.90
54260;DHT22;40172;53.022;7.012;2024-01-11T06:53:48;-3.30;99.90
54260;DHT22;40172;53.022;7.012;2024-01-11T06:56:14;-3.30;99.90
54260;DHT22;40172;53.022;7.012;2024-01-11T06:58:40;-3.30;99.90
54260;DHT22;40172;53.022;7.012;2024-01-11T07:01:05;-3.30;99.90
54260;DHT22;40172;53.022;7.012;2024-01-11T07:03:31;-3.40;99.90
54260;DHT22;40172;53.022;7.012;2024-01-11T07:05:57;-3.50;99.90
54260;DHT22;40172;53.022;7.012;2024-01-11T07:08:22;-3.30;99.90
54260;DHT22;40172;53.022;7.012;2024-01-11T07:10:48;-3.30;99.90
54260;DHT22;40172;53.022;7.012;2024-01-11T07:13:14;-3.10;99.90
54260;DHT22;40172;53.022;7.012;2024-01-11T07:15:42;-3.20;99.90
54260;DHT22;40172;53.022;7.012;2024-01-11T07:18:07;-3.10;99.90
54260;DHT22;40172;53.022;7.012;2024-01-11T07:20:33;-3.00;99.90
54260;DHT22;40172;53.022;7.012;2024-01-11T07:22:59;-3.20;99.90
54260;DHT22;40172;53.022;7.012;2024-01-11T07:25:25;-3.00;99.90
54260;DHT22;40172;53.022;7.012;2024-01-11T07:27:50;-3.00;99.90
54260;DHT22;40172;53.022;7.012;2024-01-11T07:30:16;-1.20;99.90
54260;DHT22;40172;53.022;7.012;2024-01-11T07:32:43;-2.90;99.90
54260;DHT22;40172;53.022;7.012;2024-01-11T07:35:09;-2.70;99.90
54260;DHT22;40172;53.022;7.012;2024-01-11T07:37:36;-3.00;99.90
54260;DHT22;40172;53.022;7.012;2024-01-11T07:40:02;-3.00;99.90
54260;DHT22;40172;53.022;7.012;2024-01-11T07:42:27;-2.80;99.90
54260;DHT22;40172;53.022;7.012;2024-01-11T07:44:53;-2.80;99.90
54260;DHT22;40172;53.022;7.012;2024-01-11T07:47:19;-2.70;99.90
54260;DHT22;40172;53.022;7.012;2024-01-11T07:49:44;-2.70;99.90
54260;DHT22;40172;53.022;7.012;2024-01-11T07:52:10;-2.80;99.90
54260;DHT22;40172;53.022;7.012;2024-01-11T07:54:35;-2.80;99.90
54260;DHT22;40172;53.022;7.012;2024-01-11T07:57:01;-2.90;99.90
54260;DHT22;40172;53.022;7.012;2024-01-11T07:59:32;-2.70;99.90
54260;DHT22;40172;53.022;7.012;2024-01-11T08:01:57;-2.80;99.90
54260;DHT22;40172;53.022;7.012;2024-01-11T08:04:23;-2.60;99.90
54260;DHT22;40172;53.022;7.012;2024-01-11T08:06:48;-2.60;99.90
54260;DHT22;40172;53.022;7.012;2024-01-11T08:09:14;-2.70;99.90
54260;DHT22;40172;53.022;7.012;2024-01-11T08:11:39;-2.60;99.90
54260;DHT22;40172;53.022;7.012;2024-01-11T08:14:07;-2.50;99.90
54260;DHT22;40172;53.022;7.012;2024-01-11T08:16:32;-2.50;99.90
54260;DHT22;40172;53.022;7.012;2024-01-11T08:18:58;-2.60;99.90
54260;DHT22;40172;53.022;7.012;2024-01-11T08:21:23;-2.40;99.90
54260;DHT22;40172;53.022;7.012;2024-01-11T08:23:50;-2.20;99.90
54260;DHT22;40172;53.022;7.012;2024-01-11T08:26:15;-2.50;99.90
54260;DHT22;40172;53.022;7.012;2024-01-11T08:28:41;-2.30;99.90
54260;DHT22;40172;53.022;7.012;2024-01-11T08:31:07;-2.40;99.90
54260;DHT22;40172;53.022;7.012;2024-01-11T08:33:33;-2.30;99.90
54260;DHT22;40172;53.022;7.012;2024-01-11T08:35:58;-2.10;99.90
54260;DHT22;40172;53.022;7.012;2024-01-11T08:38:24;-2.20;99.90
54260;DHT22;40172;53.022;7.012;2024-01-11T08:40:50;-2.10;99.90
54260;DHT22;40172;53.022;7.012;2024-01-11T08:43:15;-2.00;99.90
54260;DHT22;40172;53.022;7.012;2024-01-11T08:45:41;-2.00;99.90
54260;DHT22;40172;53.022;7.012;2024-01-11T08:48:08;-1.90;99.90
54260;DHT22;40172;53.022;7.012;2024-01-11T08:50:35;-2.00;99.90
54260;DHT22;40172;53.022;7.012;2024-01-11T08:53:00;-1.90;99.90
54260;DHT22;40172;53.022;7.012;2024-01-11T08:55:26;-1.70;99.90
54260;DHT22;40172;53.022;7.012;2024-01-11T08:57:52;-1.60;99.90
54260;DHT22;40172;53.022;7.012;2024-01-11T09:00:17;-1.60;99.90
54260;DHT22;40172;53.022;7.012;2024-01-11T09:02:43;-1.50;99.90
54260;DHT22;40172;53.022;7.012;2024-01-11T09:05:09;-1.40;99.90
54260;DHT22;40172;53.022;7.012;2024-01-11T09:07:35;-1.40;99.90
54260;DHT22;40172;53.022;7.012;2024-01-11T09:10:02;-0.40;99.90
54260;DHT22;40172;53.022;7.012;2024-01-11T09:12:28;-1.40;99.90
54260;DHT22;40172;53.022;7.012;2024-01-11T09:14:54;-1.40;99.90
54260;DHT22;40172;53.022;7.012;2024-01-11T09:17:20;-1.40;99.90
54260;DHT22;40172;53.022;7.012;2024-01-11T09:19:46;-1.20;99.90
54260;DHT22;40172;53.022;7.012;2024-01-11T09:22:12;-1.30;99.90
54260;DHT22;40172;53.022;7.012;2024-01-11T09:24:38;-1.30;99.90
54260;DHT22;40172;53.022;7.012;2024-01-11T09:27:03;-1.30;99.90
54260;DHT22;40172;53.022;7.012;2024-01-11T09:29:32;-1.10;99.90
54260;DHT22;40172;53.022;7.012;2024-01-11T09:31:58;-1.30;99.90
54260;DHT22;40172;53.022;7.012;2024-01-11T09:34:24;-1.00;99.90
54260;DHT22;40172;53.022;7.012;2024-01-11T09:36:50;-1.10;99.90
54260;DHT22;40172;53.022;7.012;2024-01-11T09:39:16;-1.10;99.90
54260;DHT22;40172;53.022;7.012;2024-01-11T09:41:42;-0.80;99.90
54260;DHT22;40172;53.022;7.012;2024-01-11T09:44:12;-0.90;99.90
54260;DHT22;40172;53.022;7.012;2024-01-11T09:46:37;-0.90;99.90
54260;DHT22;40172;53.022;7.012;2024-01-11T09:49:03;-0.60;99.90
54260;DHT22;40172;53.022;7.012;2024-01-11T09:51:29;-0.80;99.90
54260;DHT22;40172;53.022;7.012;2024-01-11T09:53:55;-0.80;99.90
54260;DHT22;40172;53.022;7.012;2024-01-11T09:56:23;-0.50;99.90
54260;DHT22;40172;53.022;7.012;2024-01-11T09:58:50;-0.70;99.90
54260;DHT22;40172;53.022;7.012;2024-01-11T10:01:16;-0.50;99.90
54260;DHT22;40172;53.022;7.012;2024-01-11T10:03:42;-0.50;99.90
54260;DHT22;40172;53.022;7.012;2024-01-11T10:06:08;-0.40;99.90
54260;DHT22;40172;53.022;7.012;2024-01-11T10:08:35;-0.20;99.90
54260;DHT22;40172;53.022;7.012;2024-01-11T10:11:01;-0.10;99.90
54260;DHT22;40172;53.022;7.012;2024-01-11T10:13:27;-0.30;99.90
54260;DHT22;40172;53.022;7.012;2024-01-11T10:16:15;0.00;99.90
54260;DHT22;40172;53.022;7.012;2024-01-11T10:18:41;0.10;99.90
54260;DHT22;40172;53.022;7.012;2024-01-11T10:21:06;0.10;99.90
54260;DHT22;40172;53.022;7.012;2024-01-11T10:23:35;0.20;99.90
54260;DHT22;40172;53.022;7.012;2024-01-11T10:26:01;0.30;99.90
54260;DHT22;40172;53.022;7.012;2024-01-11T10:28:27;0.20;99.90
54260;DHT22;40172;53.022;7.012;2024-01-11T10:30:53;0.20;99.90
54260;DHT22;40172;53.022;7.012;2024-01-11T10:33:19;0.20;99.90
54260;DHT22;40172;53.022;7.012;2024-01-11T10:35:46;0.20;99.90
54260;DHT22;40172;53.022;7.012;2024-01-11T10:38:13;0.40;99.90
54260;DHT22;40172;53.022;7.012;2024-01-11T10:40:40;0.10;99.90
54260;DHT22;40172;53.022;7.012;2024-01-11T10:43:05;1.00;99.90
54260;DHT22;40172;53.022;7.012;2024-01-11T10:45:34;0.30;99.90
54260;DHT22;40172;53.022;7.012;2024-01-11T10:48:07;0.20;99.90
54260;DHT22;40172;53.022;7.012;2024-01-11T10:50:37;0.40;99.90
54260;DHT22;40172;53.022;7.012;2024-01-11T10:55:35;0.40;99.90
54260;DHT22;40172;53.022;7.012;2024-01-11T10:58:01;0.30;99.90
54260;DHT22;40172;53.022;7.012;2024-01-11T11:00:28;0.50;99.90
54260;DHT22;40172;53.022;7.012;2024-01-11T11:02:54;0.30;99.90
54260;DHT22;40172;53.022;7.012;2024-01-11T11:05:20;0.50;99.90
54260;DHT22;40172;53.022;7.012;2024-01-11T11:07:49;0.60;99.90
54260;DHT22;40172;53.022;7.012;2024-01-11T11:10:17;0.40;99.90
54260;DHT22;40172;53.022;7.012;2024-01-11T11:12:42;1.50;99.90
54260;DHT22;40172;53.022;7.012;2024-01-11T11:15:10;0.60;99.90
54260;DHT22;40172;53.022;7.012;2024-01-11T11:17:37;0.60;99.90
54260;DHT22;40172;53.022;7.012;2024-01-11T11:20:03;0.50;99.90
54260;DHT22;40172;53.022;7.012;2024-01-11T11:22:33;0.70;99.90
54260;DHT22;40172;53.022;7.012;2024-01-11T11:25:11;0.50;99.90
54260;DHT22;40172;53.022;7.012;2024-01-11T11:27:49;0.80;99.90
54260;DHT22;40172;53.022;7.012;2024-01-11T11:30:14;0.80;99.90
54260;DHT22;40172;53.022;7.012;2024-01-11T11:32:43;0.80;99.90
54260;DHT22;40172;53.022;7.012;2024-01-11T11:35:09;0.90;99.90
54260;DHT22;40172;53.022;7.012;2024-01-11T11:37:38;1.00;99.90
54260;DHT22;40172;53.022;7.012;2024-01-11T11:40:05;1.00;99.90
54260;DHT22;40172;53.022;7.012;2024-01-11T11:42:31;1.00;99.90
54260;DHT22;40172;53.022;7.012;2024-01-11T11:44:56;1.00;99.90
54260;DHT22;40172;53.022;7.012;2024-01-11T11:47:23;0.90;99.90
54260;DHT22;40172;53.022;7.012;2024-01-11T11:52:24;1.20;99.90
54260;DHT22;40172;53.022;7.012;2024-01-11T11:54:50;1.00;99.90
54260;DHT22;40172;53.022;7.012;2024-01-11T11:57:16;1.20;99.90
54260;DHT22;40172;53.022;7.012;2024-01-11T11:59:42;1.00;99.90
54260;DHT22;40172;53.022;7.012;2024-01-11T12:02:08;1.00;99.90
54260;DHT22;40172;53.022;7.012;2024-01-11T12:04:40;1.20;99.90
54260;DHT22;40172;53.022;7.012;2024-01-11T12:07:06;1.10;99.90
54260;DHT22;40172;53.022;7.012;2024-01-11T12:09:31;0.90;99.90
54260;DHT22;40172;53.022;7.012;2024-01-11T12:11:57;1.10;99.90
54260;DHT22;40172;53.022;7.012;2024-01-11T12:14:23;1.00;99.90
54260;DHT22;40172;53.022;7.012;2024-01-11T12:16:59;0.90;99.90
54260;DHT22;40172;53.022;7.012;2024-01-11T12:19:25;0.70;99.90
54260;DHT22;40172;53.022;7.012;2024-01-11T12:21:50;0.90;99.90
54260;DHT22;40172;53.022;7.012;2024-01-11T12:24:16;1.10;99.90
54260;DHT22;40172;53.022;7.012;2024-01-11T12:26:42;1.10;99.90
54260;DHT22;40172;53.022;7.012;2024-01-11T12:29:08;1.20;99.90
54260;DHT22;40172;53.022;7.012;2024-01-11T12:31:34;1.10;99.90
54260;DHT22;40172;53.022;7.012;2024-01-11T12:34:01;0.90;99.90
54260;DHT22;40172;53.022;7.012;2024-01-11T12:36:27;1.10;99.90
54260;DHT22;40172;53.022;7.012;2024-01-11T12:38:53;1.20;99.90
54260;DHT22;40172;53.022;7.012;2024-01-11T12:41:19;1.00;99.90
54260;DHT22;40172;53.022;7.012;2024-01-11T12:43:45;1.90;99.90
54260;DHT22;40172;53.022;7.012;2024-01-11T12:46:11;1.20;99.90
54260;DHT22;40172;53.022;7.012;2024-01-11T12:48:36;1.00;99.90
54260;DHT22;40172;53.022;7.012;2024-01-11T12:51:02;1.00;99.90
54260;DHT22;40172;53.022;7.012;2024-01-11T12:53:28;1.10;99.90
54260;DHT22;40172;53.022;7.012;2024-01-11T12:56:15;1.00;99.90
54260;DHT22;40172;53.022;7.012;2024-01-11T12:58:40;1.00;99.90
54260;DHT22;40172;53.022;7.012;2024-01-11T13:01:06;1.10;99.90
54260;DHT22;40172;53.022;7.012;2024-01-11T13:03:34;1.00;99.90
54260;DHT22;40172;53.022;7.012;2024-01-11T13:06:04;0.90;99.90
54260;DHT22;40172;53.022;7.012;2024-01-11T13:08:30;1.10;99.90
54260;DHT22;40172;53.022;7.012;2024-01-11T13:10:56;0.90;99.90
54260;DHT22;40172;53.022;7.012;2024-01-11T13:13:22;0.90;99.90
54260;DHT22;40172;53.022;7.012;2024-01-11T13:15:47;1.00;99.90
54260;DHT22;40172;53.022;7.012;2024-01-11T13:18:13;0.80;99.90
54260;DHT22;40172;53.022;7.012;2024-01-11T13:20:39;0.90;99.90
54260;DHT22;40172;53.022;7.012;2024-01-11T13:23:11;0.90;99.90
54260;DHT22;40172;53.022;7.012;2024-01-11T13:25:37;0.90;99.90
54260;DHT22;40172;53.022;7.012;2024-01-11T13:28:03;1.60;99.90
54260;DHT22;40172;53.022;7.012;2024-01-11T13:30:28;0.50;99.90
54260;DHT22;40172;53.022;7.012;2024-01-11T13:32:54;0.80;99.90
54260;DHT22;40172;53.022;7.012;2024-01-11T13:35:20;1.30;99.90
54260;DHT22;40172;53.022;7.012;2024-01-11T13:37:45;0.90;99.90
54260;DHT22;40172;53.022;7.012;2024-01-11T13:40:11;1.80;99.90
54260;DHT22;40172;53.022;7.012;2024-01-11T13:42:39;0.90;99.90
54260;DHT22;40172;53.022;7.012;2024-01-11T13:45:05;1.00;99.90
54260;DHT22;40172;53.022;7.012;2024-01-11T13:47:37;0.80;99.90
54260;DHT22;40172;53.022;7.012;2024-01-11T13:50:02;1.00;99.90
54260;DHT22;40172;53.022;7.012;2024-01-11T13:52:28;0.80;99.90
54260;DHT22;40172;53.022;7.012;2024-01-11T13:54:54;0.80;99.90
54260;DHT22;40172;53.022;7.012;2024-01-11T13:57:20;0.80;99.90
54260;DHT22;40172;53.022;7.012;2024-01-11T13:59:46;1.00;99.90
54260;DHT22;40172;53.022;7.012;2024-01-11T14:02:11;0.80;99.90
54260;DHT22;40172;53.022;7.012;2024-01-11T14:04:37;0.90;99.90
54260;DHT22;40172;53.022;7.012;2024-01-11T14:07:03;0.80;99.90
54260;DHT22;40172;53.022;7.012;2024-01-11T14:09:31;0.90;99.90
54260;DHT22;40172;53.022;7.012;2024-01-11T14:11:57;0.80;99.90
54260;DHT22;40172;53.022;7.012;2024-01-11T14:14:22;0.90;99.90
54260;DHT22;40172;53.022;7.012;2024-01-11T14:16:48;0.70;99.90
54260;DHT22;40172;53.022;7.012;2024-01-11T14:19:14;0.90;99.90
54260;DHT22;40172;53.022;7.012;2024-01-11T14:21:39;0.90;99.90
54260;DHT22;40172;53.022;7.012;2024-01-11T14:24:05;0.70;99.90
54260;DHT22;40172;53.022;7.012;2024-01-11T14:26:31;0.90;99.90
54260;DHT22;40172;53.022;7.012;2024-01-11T14:28:57;0.90;99.90
54260;DHT22;40172;53.022;7.012;2024-01-11T14:31:22;0.80;99.90
54260;DHT22;40172;53.022;7.012;2024-01-11T14:33:48;0.80;99.90
54260;DHT22;40172;53.022;7.012;2024-01-11T14:36:14;1.00;99.90
54260;DHT22;40172;53.022;7.012;2024-01-11T14:38:40;0.70;99.90
54260;DHT22;40172;53.022;7.012;2024-01-11T14:41:06;2.30;99.90
54260;DHT22;40172;53.022;7.012;2024-01-11T14:43:32;1.00;99.90
54260;DHT22;40172;53.022;7.012;2024-01-11T14:45:58;1.00;99.90
54260;DHT22;40172;53.022;7.012;2024-01-11T14:48:23;0.80;99.90
54260;DHT22;40172;53.022;7.012;2024-01-11T14:50:49;0.80;99.90
54260;DHT22;40172;53.022;7.012;2024-01-11T14:53:15;0.70;99.90
54260;DHT22;40172;53.022;7.012;2024-01-11T14:55:40;2.80;99.90
54260;DHT22;40172;53.022;7.012;2024-01-11T14:58:06;0.90;99.90
54260;DHT22;40172;53.022;7.012;2024-01-11T15:00:31;0.80;99.90
54260;DHT22;40172;53.022;7.012;2024-01-11T15:02:57;0.60;99.90
54260;DHT22;40172;53.022;7.012;2024-01-11T15:05:22;0.80;99.90
54260;DHT22;40172;53.022;7.012;2024-01-11T15:07:48;2.90;99.90
54260;DHT22;40172;53.022;7.012;2024-01-11T15:10:14;0.50;99.90
54260;DHT22;40172;53.022;7.012;2024-01-11T15:12:40;0.90;99.90
54260;DHT22;40172;53.022;7.012;2024-01-11T15:15:05;0.90;99.90
54260;DHT22;40172;53.022;7.012;2024-01-11T15:17:32;0.80;99.90
54260;DHT22;40172;53.022;7.012;2024-01-11T15:19:57;0.80;99.90
54260;DHT22;40172;53.022;7.012;2024-01-11T15:22:23;0.50;99.90
54260;DHT22;40172;53.022;7.012;2024-01-11T15:24:49;0.60;99.90
54260;DHT22;40172;53.022;7.012;2024-01-11T15:27:21;0.70;99.90
54260;DHT22;40172;53.022;7.012;2024-01-11T15:29:47;0.80;99.90
54260;DHT22;40172;53.022;7.012;2024-01-11T15:32:13;0.60;99.90
54260;DHT22;40172;53.022;7.012;2024-01-11T15:34:39;0.70;99.90
54260;DHT22;40172;53.022;7.012;2024-01-11T15:37:06;0.60;99.90